KHOP/HOP METAR and TAF weather

Enter ICAO airport designator
Station Type Date Time Source
KHOP METAR 2019/02/20 17:03 UTC NOAA

KHOP 201703Z AUTO 17006KT 10SM -DZ OVC007 10/10 A2981 RMK AO2 DZE00DZB03 SLP098


Station Type Date Time Source
KHOP Decoded METAR 2019/02/20 17:03 UTC NOAA

Fort Campbell U. S. Army Airfield, KY, United States (KHOP) 36-40N 087-30W 174M
Feb 20, 2019 - 12:03 PM EST / 2019.02.20 1703 UTC
Wind: from the S (170 degrees) at 7 MPH (6 KT):0
Visibility: 10 mile(s):0
Sky conditions: overcast
Weather: light drizzle
Temperature: 50 F (10 C)
Dew Point: 50 F (10 C)
Relative Humidity: 100%
Pressure (altimeter): 29.81 in. Hg (1009 hPa)
ob: KHOP 201703Z AUTO 17006KT 10SM -DZ OVC007 10/10 A2981 RMK AO2 DZE00DZB03 SLP098
cycle: 17

Station Type Date Time Source
KHOP TAF 2019/02/20 17:09 UTC NOAA

TAF TAF
AMD KHOP 201705Z 2017/2122 15012KT 9000 -RA BKN007 QNH2981INS
BECMG 2023/2024 22006KT 8000 -DZ BR BKN009 QNH2986INS
BECMG 2105/2106 30006KT 9999 NSW BKN009 QNH2992INS
BECMG 2114/2115 27006KT 9999 BKN010 QNH3001INS
BECMG 2120/2121 05006KT 9999 SCT060 BKN150 QNH3018INS TX10/2023Z TN02/2114Z


Example: see airport list